Time;durP1;ratioP1;P1;durP2;ratioP2;P2;SDS_P1;SDS_P2;PMS_P1;PMS_P2;Temp;Humidity;BMP_temperature;BMP_pressure;BME280_temperature;BME280_humidity;BME280_pressure;Samples;Min_cycle;Max_cycle;Signal;HPM_P1;HPM_P2
2022/01/27 00:06:33;;;;;;;56.37;37.28;;;5.40;79.10;;;;;;10790071;33;20015;-71
2022/01/27 00:12:36;;;;;;;45.72;32.53;;;5.20;79.90;;;;;;10789377;33;20037;-73
2022/01/27 00:18:40;;;;;;;47.47;31.55;;;5.30;79.90;;;;;;10755076;33;20024;-73
2022/01/27 00:24:42;;;;;;;62.83;41.85;;;5.20;79.40;;;;;;10750353;33;20040;-73
2022/01/27 00:30:44;;;;;;;52.13;37.72;;;5.20;79.80;;;;;;10750221;33;20086;-73
2022/01/27 00:36:47;;;;;;;73.93;43.33;;;5.50;79.70;;;;;;10752985;33;20063;-73
2022/01/27 00:42:49;;;;;;;61.95;41.45;;;5.30;79.50;;;;;;10411287;33;12170948;-73
2022/01/27 00:48:51;;;;;;;71.82;49.83;;;5.30;79.80;;;;;;10828956;32;20051;-73
2022/01/27 00:54:54;;;;;;;84.07;53.80;;;5.40;79.80;;;;;;10832399;32;20289;-73
2022/01/27 01:01:01;;;;;;;81.00;52.22;;;5.50;79.80;;;;;;10832335;32;20032;-73
2022/01/27 01:07:05;;;;;;;78.37;53.87;;;5.60;79.90;;;;;;10830962;32;20020;-73
2022/01/27 01:31:49;;;;;;;51.70;36.33;;;5.50;79.70;;;;;;10755192;32;20055;-73
2022/01/27 01:37:52;;;;;;;49.42;35.83;;;5.30;79.40;;;;;;10752408;33;20025;-73
2022/01/27 01:43:54;;;;;;;60.05;39.30;;;4.90;80.10;;;;;;10758118;27;20160;-71
2022/01/27 01:49:57;;;;;;;52.25;32.55;;;5.10;80.50;;;;;;10754069;33;20029;-71
2022/01/27 01:55:59;;;;;;;68.68;41.60;;;5.10;80.30;;;;;;10804692;32;20409;-71
2022/01/27 02:02:01;;;;;;;79.90;50.65;;;5.20;80.10;;;;;;10754195;33;20060;-71
2022/01/27 02:20:45;;;;;;;63.95;40.28;;;5.20;80.10;;;;;;10753709;33;20033;-71
2022/01/27 02:26:49;;;;;;;71.20;49.08;;;5.20;80.10;;;;;;10749845;33;20024;-73
2022/01/27 02:32:53;;;;;;;72.82;48.22;;;5.20;80.00;;;;;;10753278;33;20024;-73
2022/01/27 02:38:55;;;;;;;51.95;35.03;;;5.20;80.60;;;;;;10753023;33;20025;-73
2022/01/27 02:45:04;;;;;;;52.33;33.20;;;5.20;80.60;;;;;;10752774;33;20047;-73
2022/01/27 02:51:06;;;;;;;50.33;34.25;;;4.90;80.40;;;;;;10749694;33;20083;-71
2022/01/27 02:57:09;;;;;;;50.12;33.45;;;4.80;80.70;;;;;;10802296;32;20040;-71
2022/01/27 03:03:11;;;;;;;57.38;39.38;;;4.80;80.60;;;;;;10752429;33;20435;-71
2022/01/27 03:09:13;;;;;;;58.47;38.58;;;4.80;80.40;;;;;;10750526;33;20306;-71
2022/01/27 03:15:16;;;;;;;61.72;37.28;;;4.90;80.50;;;;;;10748564;33;20033;-71
2022/01/27 03:21:18;;;;;;;48.65;32.90;;;4.70;80.90;;;;;;10751855;33;20059;-71
2022/01/27 03:27:24;;;;;;;49.00;34.75;;;4.70;80.90;;;;;;10752161;33;20401;-71
2022/01/27 03:33:26;;;;;;;53.55;35.83;;;4.70;80.60;;;;;;10751918;33;20020;-71
2022/01/27 03:39:28;;;;;;;53.47;34.38;;;4.70;80.40;;;;;;10751506;33;20051;-71
2022/01/27 03:45:31;;;;;;;67.28;41.97;;;4.70;80.20;;;;;;10748735;33;20025;-71
2022/01/27 03:51:33;;;;;;;63.10;38.30;;;4.60;80.50;;;;;;10751074;33;20047;-73
2022/01/27 03:57:35;;;;;;;59.47;38.67;;;4.70;80.60;;;;;;10751115;33;20036;-73
2022/01/27 04:03:38;;;;;;;67.25;41.17;;;4.60;80.40;;;;;;10750908;33;20071;-73
2022/01/27 04:09:40;;;;;;;57.70;36.33;;;4.60;80.40;;;;;;10750225;33;20025;-73
2022/01/27 04:15:43;;;;;;;55.03;35.80;;;4.50;80.40;;;;;;10750661;33;20016;-73
2022/01/27 04:21:45;;;;;;;49.70;32.75;;;4.50;80.50;;;;;;10800499;32;20325;-73
2022/01/27 04:27:52;;;;;;;55.10;36.33;;;4.40;80.50;;;;;;10748933;33;20413;-73
2022/01/27 04:33:54;;;;;;;60.72;35.65;;;4.70;81.10;;;;;;10750253;33;20067;-73
2022/01/27 04:40:07;;;;;;;58.35;38.03;;;4.40;80.80;;;;;;10750019;33;20036;-73
2022/01/27 04:52:45;;;;;;;68.22;41.60;;;4.60;81.20;;;;;;10821714;32;20054;-73
2022/01/27 04:58:52;;;;;;;58.25;35.20;;;4.80;80.70;;;;;;10808162;32;20324;-73
2022/01/27 05:04:54;;;;;;;55.83;33.10;;;4.70;80.00;;;;;;10825018;33;20046;-73
2022/01/27 05:11:05;;;;;;;80.07;49.35;;;4.50;80.70;;;;;;10824114;33;20043;-73
2022/01/27 05:17:07;;;;;;;68.70;44.33;;;4.80;80.70;;;;;;10823842;33;20050;-73
2022/01/27 05:23:10;;;;;;;71.37;46.20;;;5.00;79.90;;;;;;10824566;32;20047;-73
2022/01/27 05:29:12;;;;;;;70.72;42.58;;;5.10;79.30;;;;;;10793715;32;20047;-73
2022/01/27 05:35:15;;;;;;;68.37;41.00;;;5.20;79.20;;;;;;10755589;33;20142;-73
2022/01/27 05:41:17;;;;;;;69.97;41.88;;;5.20;78.60;;;;;;10755234;33;20029;-71
2022/01/27 05:47:19;;;;;;;72.60;46.47;;;4.90;79.10;;;;;;10751705;33;20029;-71
2022/01/27 05:53:21;;;;;;;95.93;53.87;;;4.70;79.10;;;;;;10755150;33;20032;-71
2022/01/27 05:59:24;;;;;;;64.50;41.05;;;5.10;79.30;;;;;;10804810;32;20033;-71
2022/01/27 06:05:26;;;;;;;74.53;44.60;;;5.20;78.70;;;;;;10754579;33;20025;-71
2022/01/27 06:11:28;;;;;;;72.22;47.17;;;4.70;79.20;;;;;;10754395;33;20028;-71
2022/01/27 06:17:30;;;;;;;61.17;39.10;;;4.50;79.60;;;;;;10754894;33;20032;-71
2022/01/27 06:23:33;;;;;;;53.70;38.15;;;4.90;79.30;;;;;;10754303;33;20045;-71
2022/01/27 06:29:35;;;;;;;65.78;40.25;;;5.00;78.60;;;;;;10804175;32;20094;-71
2022/01/27 06:35:38;;;;;;;60.55;41.80;;;5.10;78.30;;;;;;10753453;33;20063;-71
2022/01/27 06:41:42;;;;;;;65.57;40.80;;;5.20;78.00;;;;;;10749520;33;20032;-71
2022/01/27 06:47:45;;;;;;;69.93;45.90;;;5.20;77.90;;;;;;10752297;33;20033;-70
2022/01/27 06:53:47;;;;;;;81.22;51.72;;;5.30;77.60;;;;;;10753180;33;20051;-71
2022/01/27 06:59:50;;;;;;;71.30;45.92;;;5.10;78.00;;;;;;10753172;33;20029;-71
2022/01/27 07:05:52;;;;;;;72.05;44.63;;;5.20;78.00;;;;;;10749860;33;20333;-71
2022/01/27 07:11:54;;;;;;;95.85;54.10;;;5.30;77.60;;;;;;10732598;33;20077;-71
2022/01/27 07:17:56;;;;;;;77.25;50.75;;;5.40;77.50;;;;;;10740633;33;20033;-71
2022/01/27 07:23:59;;;;;;;103.03;65.85;;;5.50;77.50;;;;;;10751460;33;20076;-71
2022/01/27 07:30:01;;;;;;;103.35;63.60;;;5.60;77.50;;;;;;10813750;32;20024;-71
2022/01/27 07:36:04;;;;;;;100.40;65.37;;;5.80;77.70;;;;;;10749088;33;20063;-71
2022/01/27 07:42:06;;;;;;;69.32;46.60;;;6.10;77.30;;;;;;10747608;33;20033;-71
2022/01/27 07:48:10;;;;;;;98.62;65.72;;;6.10;77.00;;;;;;10800552;32;20020;-71
2022/01/27 07:54:12;;;;;;;92.72;65.00;;;6.00;76.80;;;;;;10751845;33;20047;-73
2022/01/27 08:00:15;;;;;;;72.62;50.22;;;6.10;77.10;;;;;;10749412;33;20342;-73
2022/01/27 08:06:18;;;;;;;58.35;42.42;;;6.10;76.90;;;;;;10751524;33;20111;-73
2022/01/27 08:12:20;;;;;;;54.55;40.35;;;6.00;77.20;;;;;;10751096;33;20059;-71
2022/01/27 08:18:23;;;;;;;53.40;40.22;;;5.70;77.70;;;;;;10751279;33;20063;-70
2022/01/27 08:24:25;;;;;;;55.65;40.40;;;5.50;78.00;;;;;;10748790;33;20037;-71
2022/01/27 08:30:34;;;;;;;77.18;48.75;;;5.20;78.70;;;;;;10813487;32;20021;-71
2022/01/27 08:36:36;;;;;;;;;;;5.50;79.30;;;;;;10751045;33;20060;-71
2022/01/27 08:42:40;;;;;;;82.68;57.55;;;5.40;78.80;;;;;;10746537;33;19928;-71
2022/01/27 08:48:43;;;;;;;83.80;49.72;;;5.80;79.60;;;;;;10750524;33;20021;-71
2022/01/27 08:54:45;;;;;;;75.47;53.47;;;6.20;79.30;;;;;;10750222;33;20052;-73
2022/01/27 09:00:48;;;;;;;91.63;55.15;;;6.50;79.30;;;;;;10754043;33;20305;-73
2022/01/27 09:06:50;;;;;;;93.75;58.25;;;6.70;79.10;;;;;;10756486;33;20021;-73
2022/01/27 09:12:52;;;;;;;79.82;47.67;;;6.80;78.90;;;;;;10756167;33;20020;-73
2022/01/27 09:18:57;;;;;;;73.32;52.17;;;6.70;78.90;;;;;;10755977;33;20047;-72
2022/01/27 09:25:07;;;;;;;89.82;53.15;;;6.90;79.90;;;;;;10753215;33;20016;-72
2022/01/27 09:31:09;;;;;;;85.10;54.50;;;7.10;79.80;;;;;;10755525;33;20052;-72
2022/01/27 09:37:15;;;;;;;66.75;43.95;;;7.20;80.10;;;;;;10751850;33;20051;-73
2022/01/27 09:43:17;;;;;;;70.55;43.35;;;7.20;79.80;;;;;;10812743;27;20031;-73
2022/01/27 09:49:30;;;;;;;55.03;34.75;;;7.00;80.30;;;;;;10906181;32;20077;-73
2022/01/27 09:55:32;;;;;;;70.68;42.22;;;6.70;80.20;;;;;;10896233;32;20396;-73
2022/01/27 10:01:36;;;;;;;82.28;55.63;;;6.30;80.60;;;;;;10908541;32;20018;-71
2022/01/27 10:07:42;;;;;;;64.68;43.10;;;6.10;81.20;;;;;;10904913;32;20050;-70
2022/01/27 10:13:47;;;;;;;76.75;43.40;;;6.40;81.80;;;;;;10893441;32;20031;-70
2022/01/27 10:19:57;;;;;;;71.32;46.67;;;6.70;81.40;;;;;;10894359;32;20035;-71
2022/01/27 10:26:13;;;;;;;74.60;47.05;;;6.90;81.20;;;;;;10894069;32;20465;-70
2022/01/27 10:32:15;;;;;;;58.30;38.83;;;6.90;81.30;;;;;;10907145;32;20077;-73
2022/01/27 10:38:18;;;;;;;71.95;45.47;;;6.70;81.60;;;;;;10906706;32;20020;-73
2022/01/27 10:44:20;;;;;;;75.47;45.50;;;6.50;81.30;;;;;;10906842;32;20208;-73
2022/01/27 10:50:23;;;;;;;71.95;44.17;;;6.20;81.80;;;;;;10906375;32;20035;-72
2022/01/27 10:56:39;;;;;;;85.85;49.80;;;6.00;82.40;;;;;;10906392;32;20027;-73
2022/01/27 11:03:01;;;;;;;67.30;43.25;;;6.10;82.40;;;;;;10906098;32;20028;-73
2022/01/27 11:09:10;;;;;;;78.82;51.45;;;6.20;82.70;;;;;;10906180;32;20039;-73
2022/01/27 11:15:13;;;;;;;79.78;52.80;;;6.40;83.30;;;;;;10903167;32;20035;-73
2022/01/27 11:21:29;;;;;;;92.90;59.38;;;7.20;83.20;;;;;;10901318;32;20062;-73
2022/01/27 11:27:38;;;;;;;80.85;50.45;;;7.60;82.80;;;;;;10902949;32;20035;-73
2022/01/27 11:33:44;;;;;;;79.35;52.28;;;7.70;81.90;;;;;;10905014;32;20392;-73
2022/01/27 11:39:55;;;;;;;88.82;58.67;;;7.40;82.20;;;;;;10905239;32;20023;-73
2022/01/27 11:46:15;;;;;;;85.07;52.83;;;7.50;82.90;;;;;;10904967;32;20397;-73
2022/01/27 11:52:49;;;;;;;76.90;50.05;;;7.70;83.10;;;;;;10904602;32;20011;-73
2022/01/27 11:58:54;;;;;;;72.28;43.33;;;8.00;82.80;;;;;;10782295;33;20060;-73
2022/01/27 12:05:12;;;;;;;71.53;44.38;;;8.20;82.10;;;;;;10788098;33;20036;-73
2022/01/27 12:11:53;;;;;;;69.45;42.70;;;7.90;82.70;;;;;;10786763;33;20055;-71
2022/01/27 12:18:35;;;;;;;93.93;57.25;;;8.00;82.80;;;;;;10786235;33;20059;-70
2022/01/27 12:24:53;;;;;;;83.50;50.60;;;7.90;82.70;;;;;;10788525;33;20037;-70
2022/01/27 12:30:56;;;;;;;76.78;52.58;;;7.90;82.60;;;;;;10785648;33;20075;-70
2022/01/27 12:37:01;;;;;;;83.50;57.88;;;7.90;82.70;;;;;;10873001;32;20027;-70
2022/01/27 12:43:12;;;;;;;75.43;47.60;;;8.10;82.90;;;;;;10869694;32;20054;-70
2022/01/27 12:49:40;;;;;;;72.28;44.60;;;8.10;82.80;;;;;;10871220;32;20054;-70
2022/01/27 12:55:44;;;;;;;58.87;38.42;;;7.90;82.60;;;;;;10870284;32;20058;-70
2022/01/27 13:01:56;;;;;;;78.82;47.30;;;8.20;83.20;;;;;;10873260;32;20391;-70
2022/01/27 13:08:04;;;;;;;63.75;44.30;;;8.40;82.60;;;;;;10873146;32;20422;-71
2022/01/27 13:14:08;;;;;;;55.13;31.60;;;8.60;82.50;;;;;;10872853;32;20055;-70
2022/01/27 13:20:18;;;;;;;61.80;33.95;;;8.70;82.10;;;;;;10872624;32;20050;-70
2022/01/27 13:26:20;;;;;;;66.80;40.28;;;8.40;82.20;;;;;;10872291;32;20027;-70
2022/01/27 13:32:23;;;;;;;66.30;41.65;;;8.20;83.00;;;;;;10871720;32;20047;-70
2022/01/27 13:38:30;;;;;;;56.22;34.25;;;8.50;82.80;;;;;;10901580;32;20050;-70
2022/01/27 13:44:32;;;;;;;68.75;41.47;;;8.70;82.00;;;;;;10904185;32;20015;-70
2022/01/27 13:50:34;;;;;;;53.87;36.22;;;8.30;82.20;;;;;;10908737;32;20411;-70
2022/01/27 13:56:38;;;;;;;64.12;40.03;;;8.70;82.90;;;;;;10908455;32;20054;-70
2022/01/27 14:02:45;;;;;;;72.40;42.42;;;8.90;82.10;;;;;;10908582;32;20435;-70
2022/01/27 14:08:47;;;;;;;59.33;32.85;;;8.90;82.00;;;;;;10890799;32;20023;-70
2022/01/27 14:14:52;;;;;;;61.97;39.13;;;9.10;81.70;;;;;;10894842;32;20120;-70
2022/01/27 14:21:00;;;;;;;74.47;44.58;;;9.20;81.80;;;;;;10892874;32;20422;-70
2022/01/27 14:27:04;;;;;;;57.80;35.28;;;9.20;81.40;;;;;;10903549;32;20019;-70
2022/01/27 14:33:06;;;;;;;65.50;37.30;;;9.20;81.30;;;;;;10906148;32;20085;-70
2022/01/27 14:39:09;;;;;;;51.55;29.40;;;9.20;81.50;;;;;;10907056;32;20072;-70
2022/01/27 14:45:11;;;;;;;62.83;38.15;;;9.10;81.10;;;;;;10906826;32;20312;-70
2022/01/27 14:51:15;;;;;;;54.78;31.37;;;8.90;81.90;;;;;;10906528;32;20024;-70
2022/01/27 14:57:18;;;;;;;70.32;42.47;;;9.10;81.80;;;;;;10902922;32;20027;-70
2022/01/27 15:03:20;;;;;;;52.95;34.45;;;9.20;81.50;;;;;;10899499;32;20027;-70
2022/01/27 15:09:22;;;;;;;49.28;29.12;;;9.20;81.10;;;;;;10868311;32;20023;-73
2022/01/27 15:21:45;;;;;;;74.07;41.17;;;8.90;81.30;;;;;;10891428;32;20027;-72
2022/01/27 15:27:48;;;;;;;45.15;27.37;;;8.80;81.20;;;;;;10905467;32;20023;-72
2022/01/27 15:33:50;;;;;;;70.32;40.63;;;8.80;81.10;;;;;;10905353;32;20016;-73
2022/01/27 15:39:57;;;;;;;50.17;31.15;;;8.60;81.30;;;;;;10891604;32;20290;-70
2022/01/27 15:46:00;;;;;;;115.05;61.75;;;8.40;81.20;;;;;;10901650;32;20309;-70
2022/01/27 15:52:02;;;;;;;78.87;41.80;;;8.20;81.50;;;;;;10904785;32;20007;-70
2022/01/27 15:58:05;;;;;;;46.92;29.02;;;8.00;81.80;;;;;;10900173;32;20054;-70
2022/01/27 16:04:09;;;;;;;50.53;30.37;;;8.30;81.50;;;;;;10904434;32;20027;-70
2022/01/27 16:10:12;;;;;;;59.22;33.38;;;8.20;81.20;;;;;;10903520;32;20023;-70
2022/01/27 16:16:14;;;;;;;54.47;33.67;;;8.20;81.80;;;;;;10904244;32;20049;-70
2022/01/27 16:22:17;;;;;;;65.97;40.42;;;8.50;81.60;;;;;;10901108;32;20443;-70
2022/01/27 16:28:21;;;;;;;77.82;42.03;;;8.70;81.50;;;;;;10904130;32;20039;-70
2022/01/27 16:34:23;;;;;;;45.95;27.48;;;8.70;80.90;;;;;;10901014;32;20065;-70
2022/01/27 16:40:25;;;;;;;50.80;28.48;;;8.50;80.80;;;;;;10903691;32;20023;-70
2022/01/27 16:46:29;;;;;;;47.38;29.25;;;8.50;81.20;;;;;;10890447;32;20023;-70
2022/01/27 16:52:32;;;;;;;61.22;32.88;;;8.10;80.50;;;;;;10903700;32;20336;-70
2022/01/27 16:58:34;;;;;;;51.78;27.40;;;7.60;80.00;;;;;;10902941;32;20028;-70
2022/01/27 17:04:36;;;;;;;44.85;25.55;;;7.50;81.60;;;;;;10903336;32;20015;-70
2022/01/27 17:10:38;;;;;;;65.18;35.42;;;7.40;81.90;;;;;;10903158;32;20328;-70
2022/01/27 17:16:41;;;;;;;67.03;34.55;;;7.70;82.30;;;;;;10889871;32;20070;-70
2022/01/27 17:22:43;;;;;;;44.85;26.15;;;8.10;81.90;;;;;;10902397;32;20416;-70
2022/01/27 17:28:46;;;;;;;79.15;41.20;;;8.20;81.40;;;;;;10908355;32;20058;-70
2022/01/27 17:34:49;;;;;;;73.12;40.20;;;8.40;81.40;;;;;;10909568;32;20327;-70
2022/01/27 17:40:51;;;;;;;75.62;41.55;;;8.70;80.80;;;;;;10896124;32;20019;-70
2022/01/27 17:46:53;;;;;;;47.17;26.70;;;8.90;80.00;;;;;;10909371;27;20081;-70
2022/01/27 17:52:56;;;;;;;40.95;26.40;;;8.70;79.80;;;;;;10905157;32;20045;-70
2022/01/27 17:58:58;;;;;;;56.65;30.75;;;8.20;80.40;;;;;;10908164;32;20062;-70
2022/01/27 18:05:01;;;;;;;56.47;29.83;;;8.10;81.20;;;;;;10908402;32;20065;-70
2022/01/27 18:11:03;;;;;;;70.12;41.60;;;8.40;81.20;;;;;;10905639;32;20057;-70
2022/01/27 18:17:07;;;;;;;45.03;25.77;;;8.60;80.40;;;;;;10908420;32;20434;-70
2022/01/27 18:23:09;;;;;;;48.85;30.67;;;8.50;80.00;;;;;;10904196;32;20058;-70
2022/01/27 18:29:12;;;;;;;60.88;36.33;;;8.10;80.10;;;;;;10893723;32;20035;-70
2022/01/27 18:35:16;;;;;;;52.50;32.95;;;7.70;81.00;;;;;;10907293;32;20031;-70
2022/01/27 18:41:18;;;;;;;64.70;35.60;;;7.80;81.40;;;;;;10890028;32;20023;-70
2022/01/27 18:47:21;;;;;;;57.05;30.02;;;8.10;81.20;;;;;;10907022;32;20035;-70
2022/01/27 18:53:24;;;;;;;55.40;30.80;;;8.20;80.70;;;;;;10906486;32;20332;-70
2022/01/27 18:59:29;;;;;;;46.08;25.83;;;7.70;80.70;;;;;;10906292;32;20020;-70
2022/01/27 19:05:32;;;;;;;68.68;41.90;;;7.40;81.30;;;;;;10906098;32;20050;-70
2022/01/27 19:11:34;;;;;;;46.80;29.35;;;7.60;81.60;;;;;;10906015;32;20019;-70
2022/01/27 19:17:37;;;;;;;45.67;25.88;;;7.90;81.00;;;;;;10905803;32;20066;-70
2022/01/27 19:23:47;;;;;;;54.15;33.08;;;7.70;81.10;;;;;;10905093;32;20030;-70
2022/01/27 19:29:53;;;;;;;57.67;37.80;;;7.60;81.60;;;;;;10903946;32;20027;-70
2022/01/27 19:35:56;;;;;;;78.10;42.80;;;7.80;81.50;;;;;;10905221;32;20031;-70
2022/01/27 19:42:00;;;;;;;65.15;40.95;;;8.20;81.50;;;;;;10904311;32;20028;-70
2022/01/27 19:48:06;;;;;;;67.12;41.28;;;8.30;80.90;;;;;;10902398;32;20027;-70
2022/01/27 19:54:11;;;;;;;62.33;38.22;;;8.20;80.10;;;;;;10900385;32;20057;-72
2022/01/27 20:00:15;;;;;;;66.18;41.08;;;7.90;81.00;;;;;;10905337;32;20050;-70
2022/01/27 20:06:17;;;;;;;48.83;29.17;;;7.90;81.50;;;;;;10904529;32;20069;-70
2022/01/27 20:12:19;;;;;;;61.33;30.12;;;8.20;81.20;;;;;;10904401;32;20046;-70
2022/01/27 20:18:21;;;;;;;47.45;29.05;;;7.90;81.00;;;;;;10903794;32;20045;-70
2022/01/27 20:24:24;;;;;;;61.78;36.20;;;7.60;80.90;;;;;;10900703;32;20062;-70
2022/01/27 20:30:27;;;;;;;52.50;31.12;;;7.40;81.80;;;;;;10901774;32;20333;-70
2022/01/27 20:36:29;;;;;;;61.65;36.75;;;7.50;81.80;;;;;;10890463;32;20434;-70
2022/01/27 20:42:31;;;;;;;53.63;32.30;;;7.60;81.80;;;;;;10903348;32;20046;-70
2022/01/27 20:48:34;;;;;;;88.87;52.83;;;7.80;81.50;;;;;;10863831;32;20405;-73
2022/01/27 20:54:37;;;;;;;58.40;34.83;;;7.90;81.40;;;;;;10870065;32;20412;-73
2022/01/27 21:00:43;;;;;;;62.80;37.60;;;8.00;81.20;;;;;;10892449;32;20050;-73
2022/01/27 21:06:45;;;;;;;51.40;32.33;;;8.00;81.00;;;;;;10910351;32;20335;-70
2022/01/27 21:12:48;;;;;;;50.67;26.65;;;7.90;80.90;;;;;;10910115;32;20031;-70
2022/01/27 21:18:50;;;;;;;60.72;34.17;;;7.70;81.40;;;;;;10910075;32;20054;-70
2022/01/27 21:24:53;;;;;;;47.10;28.23;;;7.70;81.40;;;;;;10909704;32;20054;-73
2022/01/27 21:30:55;;;;;;;55.75;31.10;;;7.30;81.30;;;;;;10896531;32;20023;-73
2022/01/27 21:36:57;;;;;;;60.08;35.25;;;7.30;81.90;;;;;;10909588;32;20066;-73
2022/01/27 21:43:00;;;;;;;42.25;27.75;;;7.40;81.80;;;;;;10907131;32;20050;-72
2022/01/27 21:49:02;;;;;;;55.30;31.48;;;7.60;81.60;;;;;;10909021;32;20054;-72
2022/01/27 21:55:08;;;;;;;53.97;32.13;;;7.40;81.50;;;;;;10908883;32;20039;-72
2022/01/27 22:01:10;;;;;;;45.67;26.92;;;7.50;82.10;;;;;;10895000;32;20331;-70
2022/01/27 22:07:14;;;;;;;48.95;28.73;;;7.40;81.80;;;;;;10907721;32;20316;-72
2022/01/27 22:13:17;;;;;;;47.17;27.17;;;7.20;82.10;;;;;;10908229;32;20195;-72
2022/01/27 22:19:20;;;;;;;45.60;27.67;;;7.20;82.30;;;;;;10908226;32;20019;-71
2022/01/27 22:25:22;;;;;;;50.22;31.20;;;7.20;82.00;;;;;;10894589;32;20042;-71
2022/01/27 22:31:24;;;;;;;51.33;29.67;;;7.20;82.40;;;;;;10904401;32;20027;-72
2022/01/27 22:37:27;;;;;;;46.05;27.00;;;7.40;82.50;;;;;;10907310;32;20105;-72
2022/01/27 22:43:32;;;;;;;41.65;22.17;;;7.50;82.10;;;;;;10907129;32;20027;-71
2022/01/27 22:49:35;;;;;;;40.88;23.73;;;7.20;82.10;;;;;;10907151;32;20032;-70
2022/01/27 22:55:37;;;;;;;69.43;40.95;;;7.00;82.30;;;;;;10905303;32;20455;-70
2022/01/27 23:01:39;;;;;;;51.30;29.00;;;7.20;82.70;;;;;;10905651;32;20058;-72
2022/01/27 23:07:46;;;;;;;52.80;31.65;;;7.30;82.20;;;;;;10906253;32;20023;-72
2022/01/27 23:13:50;;;;;;;50.80;30.40;;;7.40;82.20;;;;;;10906100;32;20043;-72
2022/01/27 23:26:44;;;;;;;43.47;23.52;;;7.40;82.00;;;;;;10906452;32;20012;-70
2022/01/27 23:32:21;;;;;;;59.08;32.10;;;7.20;82.10;;;;;;10899825;32;20019;-70
2022/01/27 23:38:41;;;;;;;62.75;35.47;;;7.20;82.50;;;;;;10893340;32;20027;-70
2022/01/27 23:50:58;;;;;;;59.95;34.20;;;7.40;82.20;;;;;;10905621;32;20035;-70
2022/01/27 23:57:38;;;;;;;84.20;46.85;;;7.20;82.60;;;;;;10891548;32;20031;-70
